sensor_id;sensor_type;location;lat;lon;timestamp;pressure;altitude;pressure_sealevel;temperature;humidity
23733;BME280;12047;53.450;-2.286;2022-12-29T00:01:59;98255.66;;;15.07;100.00
23733;BME280;12047;53.450;-2.286;2022-12-29T00:07:00;98253.06;;;14.70;100.00
23733;BME280;12047;53.450;-2.286;2022-12-29T00:12:01;98253.44;;;15.04;100.00
23733;BME280;12047;53.450;-2.286;2022-12-29T00:17:02;98246.44;;;14.91;100.00
23733;BME280;12047;53.450;-2.286;2022-12-29T00:22:03;98263.78;;;14.63;100.00
23733;BME280;12047;53.450;-2.286;2022-12-29T00:27:22;98264.16;;;14.67;100.00
23733;BME280;12047;53.450;-2.286;2022-12-29T00:32:43;98270.53;;;14.48;100.00
23733;BME280;12047;53.450;-2.286;2022-12-29T00:38:05;98287.41;;;13.74;100.00
23733;BME280;12047;53.450;-2.286;2022-12-29T00:43:26;98299.00;;;14.29;100.00
23733;BME280;12047;53.450;-2.286;2022-12-29T00:48:45;98329.78;;;13.69;100.00
23733;BME280;12047;53.450;-2.286;2022-12-29T00:54:04;98321.06;;;13.86;100.00
23733;BME280;12047;53.450;-2.286;2022-12-29T00:59:06;98331.38;;;13.76;100.00
23733;BME280;12047;53.450;-2.286;2022-12-29T01:04:31;98353.66;;;13.50;100.00
23733;BME280;12047;53.450;-2.286;2022-12-29T01:09:32;98351.94;;;13.62;100.00
23733;BME280;12047;53.450;-2.286;2022-12-29T01:14:51;98361.38;;;13.27;100.00
23733;BME280;12047;53.450;-2.286;2022-12-29T01:19:51;98357.97;;;13.51;100.00
23733;BME280;12047;53.450;-2.286;2022-12-29T01:24:52;98367.91;;;13.62;100.00
23733;BME280;12047;53.450;-2.286;2022-12-29T01:29:53;98370.34;;;13.64;100.00
23733;BME280;12047;53.450;-2.286;2022-12-29T01:34:54;98361.81;;;13.55;100.00
23733;BME280;12047;53.450;-2.286;2022-12-29T01:39:55;98367.41;;;13.79;100.00
23733;BME280;12047;53.450;-2.286;2022-12-29T01:44:57;98374.78;;;13.77;100.00
23733;BME280;12047;53.450;-2.286;2022-12-29T01:50:03;98381.63;;;13.28;100.00
23733;BME280;12047;53.450;-2.286;2022-12-29T01:55:05;98381.13;;;13.44;100.00
23733;BME280;12047;53.450;-2.286;2022-12-29T02:00:09;98402.84;;;13.73;100.00
23733;BME280;12047;53.450;-2.286;2022-12-29T02:05:16;98407.06;;;13.49;100.00
23733;BME280;12047;53.450;-2.286;2022-12-29T02:10:26;98408.00;;;13.23;100.00
23733;BME280;12047;53.450;-2.286;2022-12-29T02:16:40;98426.16;;;13.39;100.00
23733;BME280;12047;53.450;-2.286;2022-12-29T02:37:07;98447.16;;;13.60;100.00
23733;BME280;12047;53.450;-2.286;2022-12-29T02:42:38;98466.72;;;13.73;100.00
23733;BME280;12047;53.450;-2.286;2022-12-29T02:53:05;98469.06;;;13.94;100.00
23733;BME280;12047;53.450;-2.286;2022-12-29T02:58:22;98478.00;;;13.61;100.00
23733;BME280;12047;53.450;-2.286;2022-12-29T03:08:58;98497.34;;;13.37;100.00
23733;BME280;12047;53.450;-2.286;2022-12-29T03:14:26;98517.25;;;13.79;100.00
23733;BME280;12047;53.450;-2.286;2022-12-29T03:19:48;98522.28;;;13.56;100.00
23733;BME280;12047;53.450;-2.286;2022-12-29T03:25:09;98537.25;;;13.95;100.00
23733;BME280;12047;53.450;-2.286;2022-12-29T03:30:12;98538.28;;;13.87;100.00
23733;BME280;12047;53.450;-2.286;2022-12-29T03:35:16;98543.19;;;13.97;100.00
23733;BME280;12047;53.450;-2.286;2022-12-29T03:40:18;98551.59;;;13.87;100.00
23733;BME280;12047;53.450;-2.286;2022-12-29T03:45:21;98567.00;;;14.23;100.00
23733;BME280;12047;53.450;-2.286;2022-12-29T03:50:22;98577.84;;;13.84;100.00
23733;BME280;12047;53.450;-2.286;2022-12-29T03:55:23;98577.88;;;13.77;100.00
23733;BME280;12047;53.450;-2.286;2022-12-29T04:00:23;98590.84;;;13.47;100.00
23733;BME280;12047;53.450;-2.286;2022-12-29T04:05:24;98599.16;;;13.77;100.00
23733;BME280;12047;53.450;-2.286;2022-12-29T04:10:25;98613.72;;;13.68;100.00
23733;BME280;12047;53.450;-2.286;2022-12-29T04:15:25;98625.84;;;13.24;100.00
23733;BME280;12047;53.450;-2.286;2022-12-29T04:20:26;98643.56;;;13.83;100.00
23733;BME280;12047;53.450;-2.286;2022-12-29T04:25:46;98646.69;;;13.60;100.00
23733;BME280;12047;53.450;-2.286;2022-12-29T04:30:50;98662.59;;;13.87;100.00
23733;BME280;12047;53.450;-2.286;2022-12-29T04:35:52;98669.75;;;13.86;100.00
23733;BME280;12047;53.450;-2.286;2022-12-29T04:40:54;98676.84;;;14.12;100.00
23733;BME280;12047;53.450;-2.286;2022-12-29T04:45:55;98671.66;;;13.46;100.00
23733;BME280;12047;53.450;-2.286;2022-12-29T04:50:55;98683.19;;;14.11;100.00
23733;BME280;12047;53.450;-2.286;2022-12-29T04:55:56;98695.00;;;13.24;100.00
23733;BME280;12047;53.450;-2.286;2022-12-29T05:00:57;98714.44;;;13.38;100.00
23733;BME280;12047;53.450;-2.286;2022-12-29T05:06:00;98716.25;;;13.71;100.00
23733;BME280;12047;53.450;-2.286;2022-12-29T05:11:01;98729.13;;;13.93;100.00
23733;BME280;12047;53.450;-2.286;2022-12-29T05:16:02;98742.06;;;13.57;100.00
23733;BME280;12047;53.450;-2.286;2022-12-29T05:21:02;98762.91;;;13.20;100.00
23733;BME280;12047;53.450;-2.286;2022-12-29T05:26:03;98764.16;;;13.77;100.00
23733;BME280;12047;53.450;-2.286;2022-12-29T05:31:04;98784.81;;;13.42;100.00
23733;BME280;12047;53.450;-2.286;2022-12-29T05:36:06;98796.50;;;13.35;100.00
23733;BME280;12047;53.450;-2.286;2022-12-29T05:41:07;98807.38;;;13.99;100.00
23733;BME280;12047;53.450;-2.286;2022-12-29T05:46:08;98815.94;;;13.68;100.00
23733;BME280;12047;53.450;-2.286;2022-12-29T05:51:08;98817.59;;;13.95;100.00
23733;BME280;12047;53.450;-2.286;2022-12-29T05:56:09;98827.00;;;13.91;100.00
23733;BME280;12047;53.450;-2.286;2022-12-29T06:01:10;98830.09;;;13.69;100.00
23733;BME280;12047;53.450;-2.286;2022-12-29T06:06:10;98830.88;;;13.62;100.00
23733;BME280;12047;53.450;-2.286;2022-12-29T06:11:11;98832.69;;;13.42;100.00
23733;BME280;12047;53.450;-2.286;2022-12-29T06:16:12;98854.59;;;13.44;100.00
23733;BME280;12047;53.450;-2.286;2022-12-29T06:21:13;98861.84;;;13.96;100.00
23733;BME280;12047;53.450;-2.286;2022-12-29T06:26:15;98864.06;;;13.67;100.00
23733;BME280;12047;53.450;-2.286;2022-12-29T06:31:16;98878.59;;;14.37;100.00
23733;BME280;12047;53.450;-2.286;2022-12-29T06:36:42;98891.13;;;14.16;100.00
23733;BME280;12047;53.450;-2.286;2022-12-29T06:41:44;98895.56;;;13.56;100.00
23733;BME280;12047;53.450;-2.286;2022-12-29T06:46:44;98905.19;;;13.57;100.00
23733;BME280;12047;53.450;-2.286;2022-12-29T06:51:51;98905.00;;;13.59;100.00
23733;BME280;12047;53.450;-2.286;2022-12-29T06:56:52;98918.75;;;13.76;100.00
23733;BME280;12047;53.450;-2.286;2022-12-29T07:01:52;98925.66;;;13.63;100.00
23733;BME280;12047;53.450;-2.286;2022-12-29T07:06:53;98943.19;;;13.38;100.00
23733;BME280;12047;53.450;-2.286;2022-12-29T07:11:54;98947.38;;;13.60;100.00
23733;BME280;12047;53.450;-2.286;2022-12-29T07:16:55;98958.03;;;13.67;100.00
23733;BME280;12047;53.450;-2.286;2022-12-29T07:22:20;98962.47;;;13.47;100.00
23733;BME280;12047;53.450;-2.286;2022-12-29T07:27:22;98972.69;;;13.43;100.00
23733;BME280;12047;53.450;-2.286;2022-12-29T07:32:23;98980.25;;;13.46;100.00
23733;BME280;12047;53.450;-2.286;2022-12-29T07:37:24;98993.34;;;13.41;100.00
23733;BME280;12047;53.450;-2.286;2022-12-29T07:42:24;99000.50;;;13.41;100.00
23733;BME280;12047;53.450;-2.286;2022-12-29T07:47:25;99007.16;;;13.23;100.00
23733;BME280;12047;53.450;-2.286;2022-12-29T07:52:26;99002.53;;;13.93;100.00
23733;BME280;12047;53.450;-2.286;2022-12-29T07:57:35;99024.19;;;13.77;100.00
23733;BME280;12047;53.450;-2.286;2022-12-29T08:02:56;99038.16;;;13.10;100.00
23733;BME280;12047;53.450;-2.286;2022-12-29T08:07:57;99033.03;;;13.84;100.00
23733;BME280;12047;53.450;-2.286;2022-12-29T08:13:03;99045.09;;;13.80;100.00
23733;BME280;12047;53.450;-2.286;2022-12-29T08:18:23;99058.00;;;13.14;100.00
23733;BME280;12047;53.450;-2.286;2022-12-29T08:23:27;99068.00;;;13.74;100.00
23733;BME280;12047;53.450;-2.286;2022-12-29T08:28:29;99078.06;;;13.44;100.00
23733;BME280;12047;53.450;-2.286;2022-12-29T08:33:50;99083.41;;;13.16;100.00
23733;BME280;12047;53.450;-2.286;2022-12-29T08:38:52;99104.84;;;13.71;100.00
23733;BME280;12047;53.450;-2.286;2022-12-29T08:43:53;99108.75;;;13.40;100.00
23733;BME280;12047;53.450;-2.286;2022-12-29T09:38:20;99169.88;;;12.70;100.00
23733;BME280;12047;53.450;-2.286;2022-12-29T09:56:05;99192.78;;;12.49;100.00
23733;BME280;12047;53.450;-2.286;2022-12-29T10:26:00;99214.19;;;13.48;100.00
23733;BME280;12047;53.450;-2.286;2022-12-29T10:31:31;99203.81;;;13.53;100.00
23733;BME280;12047;53.450;-2.286;2022-12-29T10:36:44;99218.91;;;13.24;100.00
23733;BME280;12047;53.450;-2.286;2022-12-29T10:59:32;99220.56;;;14.09;100.00
23733;BME280;12047;53.450;-2.286;2022-12-29T11:05:06;99216.84;;;13.48;100.00
23733;BME280;12047;53.450;-2.286;2022-12-29T11:10:40;99206.53;;;13.66;100.00
23733;BME280;12047;53.450;-2.286;2022-12-29T11:15:46;99220.09;;;13.71;100.00
23733;BME280;12047;53.450;-2.286;2022-12-29T11:20:48;99209.91;;;13.75;100.00
23733;BME280;12047;53.450;-2.286;2022-12-29T11:26:16;99212.41;;;13.83;100.00
23733;BME280;12047;53.450;-2.286;2022-12-29T11:31:57;99217.06;;;13.74;100.00
23733;BME280;12047;53.450;-2.286;2022-12-29T11:37:18;99223.31;;;14.36;100.00
23733;BME280;12047;53.450;-2.286;2022-12-29T11:42:40;99214.53;;;14.35;100.00
23733;BME280;12047;53.450;-2.286;2022-12-29T11:47:49;99212.28;;;13.98;100.00
23733;BME280;12047;53.450;-2.286;2022-12-29T11:52:58;99211.53;;;13.76;100.00
23733;BME280;12047;53.450;-2.286;2022-12-29T11:58:02;99215.72;;;13.91;100.00
23733;BME280;12047;53.450;-2.286;2022-12-29T12:03:17;99209.28;;;14.07;100.00
23733;BME280;12047;53.450;-2.286;2022-12-29T12:08:40;99216.97;;;13.95;100.00
23733;BME280;12047;53.450;-2.286;2022-12-29T12:14:27;99220.66;;;13.60;100.00
23733;BME280;12047;53.450;-2.286;2022-12-29T12:25:09;99225.56;;;13.63;100.00
23733;BME280;12047;53.450;-2.286;2022-12-29T12:30:36;99232.31;;;13.59;100.00
23733;BME280;12047;53.450;-2.286;2022-12-29T12:41:08;99248.16;;;13.46;100.00
23733;BME280;12047;53.450;-2.286;2022-12-29T12:46:33;99242.28;;;13.78;100.00
23733;BME280;12047;53.450;-2.286;2022-12-29T12:57:32;99246.97;;;13.76;100.00
23733;BME280;12047;53.450;-2.286;2022-12-29T13:03:27;99259.31;;;14.18;100.00
23733;BME280;12047;53.450;-2.286;2022-12-29T13:13:46;99252.03;;;13.99;100.00
23733;BME280;12047;53.450;-2.286;2022-12-29T13:18:56;99254.63;;;14.20;100.00
23733;BME280;12047;53.450;-2.286;2022-12-29T13:40:24;99289.19;;;14.83;100.00
23733;BME280;12047;53.450;-2.286;2022-12-29T13:45:39;99299.97;;;13.99;100.00
23733;BME280;12047;53.450;-2.286;2022-12-29T13:50:41;99300.34;;;13.96;100.00
23733;BME280;12047;53.450;-2.286;2022-12-29T14:01:35;99317.97;;;13.48;100.00
23733;BME280;12047;53.450;-2.286;2022-12-29T14:06:47;99315.59;;;13.81;100.00
23733;BME280;12047;53.450;-2.286;2022-12-29T14:12:00;99321.34;;;14.12;100.00
23733;BME280;12047;53.450;-2.286;2022-12-29T14:17:12;99318.66;;;14.34;100.00
23733;BME280;12047;53.450;-2.286;2022-12-29T14:22:26;99328.38;;;14.20;100.00
23733;BME280;12047;53.450;-2.286;2022-12-29T14:37:33;99368.94;;;13.94;100.00
23733;BME280;12047;53.450;-2.286;2022-12-29T14:42:34;99364.66;;;13.72;100.00
23733;BME280;12047;53.450;-2.286;2022-12-29T14:47:43;99367.63;;;14.05;100.00
23733;BME280;12047;53.450;-2.286;2022-12-29T14:52:54;99396.78;;;14.41;100.00
23733;BME280;12047;53.450;-2.286;2022-12-29T14:58:03;99405.16;;;14.10;100.00
23733;BME280;12047;53.450;-2.286;2022-12-29T15:03:28;99417.03;;;14.35;100.00
23733;BME280;12047;53.450;-2.286;2022-12-29T15:08:33;99433.59;;;14.52;100.00
23733;BME280;12047;53.450;-2.286;2022-12-29T15:13:38;99442.47;;;14.16;100.00
23733;BME280;12047;53.450;-2.286;2022-12-29T15:18:39;99457.56;;;13.88;100.00
23733;BME280;12047;53.450;-2.286;2022-12-29T15:23:44;99478.38;;;13.99;100.00
23733;BME280;12047;53.450;-2.286;2022-12-29T15:28:46;99486.91;;;14.09;100.00
23733;BME280;12047;53.450;-2.286;2022-12-29T15:33:49;99498.53;;;13.87;100.00
23733;BME280;12047;53.450;-2.286;2022-12-29T15:38:51;99508.13;;;13.67;100.00
23733;BME280;12047;53.450;-2.286;2022-12-29T15:44:01;99514.84;;;13.62;100.00
23733;BME280;12047;53.450;-2.286;2022-12-29T15:49:06;99521.56;;;13.94;100.00
23733;BME280;12047;53.450;-2.286;2022-12-29T15:54:20;99524.03;;;13.60;100.00
23733;BME280;12047;53.450;-2.286;2022-12-29T15:59:30;99529.91;;;13.41;100.00
23733;BME280;12047;53.450;-2.286;2022-12-29T16:04:31;99532.91;;;12.93;100.00
23733;BME280;12047;53.450;-2.286;2022-12-29T16:14:42;99535.50;;;13.46;100.00
23733;BME280;12047;53.450;-2.286;2022-12-29T16:25:02;99554.69;;;13.56;100.00
23733;BME280;12047;53.450;-2.286;2022-12-29T16:30:06;99543.34;;;12.95;100.00
23733;BME280;12047;53.450;-2.286;2022-12-29T16:35:27;99559.47;;;12.79;100.00
23733;BME280;12047;53.450;-2.286;2022-12-29T16:40:32;99561.22;;;12.49;100.00
23733;BME280;12047;53.450;-2.286;2022-12-29T16:50:47;99579.75;;;13.32;100.00
23733;BME280;12047;53.450;-2.286;2022-12-29T16:55:48;99593.44;;;13.06;100.00
23733;BME280;12047;53.450;-2.286;2022-12-29T17:00:53;99605.50;;;13.17;100.00
23733;BME280;12047;53.450;-2.286;2022-12-29T17:05:55;99615.56;;;13.07;100.00
23733;BME280;12047;53.450;-2.286;2022-12-29T17:10:56;99625.09;;;12.78;100.00
23733;BME280;12047;53.450;-2.286;2022-12-29T17:16:19;99622.75;;;12.98;100.00
23733;BME280;12047;53.450;-2.286;2022-12-29T17:21:20;99632.91;;;12.80;100.00
23733;BME280;12047;53.450;-2.286;2022-12-29T17:26:20;99636.09;;;13.13;100.00
23733;BME280;12047;53.450;-2.286;2022-12-29T17:31:21;99644.84;;;12.61;100.00
23733;BME280;12047;53.450;-2.286;2022-12-29T17:36:22;99652.47;;;12.33;100.00
23733;BME280;12047;53.450;-2.286;2022-12-29T17:41:22;99670.72;;;12.05;100.00
23733;BME280;12047;53.450;-2.286;2022-12-29T17:46:23;99679.72;;;12.27;100.00
23733;BME280;12047;53.450;-2.286;2022-12-29T17:51:24;99676.06;;;12.28;100.00
23733;BME280;12047;53.450;-2.286;2022-12-29T17:56:25;99691.00;;;12.37;100.00
23733;BME280;12047;53.450;-2.286;2022-12-29T18:01:26;99689.63;;;12.02;100.00
23733;BME280;12047;53.450;-2.286;2022-12-29T18:06:27;99696.16;;;12.31;100.00
23733;BME280;12047;53.450;-2.286;2022-12-29T18:11:27;99693.28;;;12.01;100.00
23733;BME280;12047;53.450;-2.286;2022-12-29T18:16:28;99708.13;;;11.87;100.00
23733;BME280;12047;53.450;-2.286;2022-12-29T18:21:30;99715.34;;;12.10;100.00
23733;BME280;12047;53.450;-2.286;2022-12-29T18:26:30;99730.97;;;11.97;100.00
23733;BME280;12047;53.450;-2.286;2022-12-29T18:31:34;99731.03;;;11.80;100.00
23733;BME280;12047;53.450;-2.286;2022-12-29T18:36:35;99765.31;;;11.90;100.00
23733;BME280;12047;53.450;-2.286;2022-12-29T18:41:36;99766.03;;;11.59;100.00
23733;BME280;12047;53.450;-2.286;2022-12-29T18:46:37;99778.09;;;12.03;100.00
23733;BME280;12047;53.450;-2.286;2022-12-29T18:51:37;99777.91;;;12.04;100.00
23733;BME280;12047;53.450;-2.286;2022-12-29T18:56:38;99797.84;;;11.92;100.00
23733;BME280;12047;53.450;-2.286;2022-12-29T19:01:39;99802.13;;;12.01;100.00
23733;BME280;12047;53.450;-2.286;2022-12-29T19:06:40;99811.44;;;11.97;100.00
23733;BME280;12047;53.450;-2.286;2022-12-29T19:11:41;99815.34;;;12.25;100.00
23733;BME280;12047;53.450;-2.286;2022-12-29T19:16:44;99821.34;;;12.19;100.00
23733;BME280;12047;53.450;-2.286;2022-12-29T19:21:45;99821.69;;;12.16;100.00
23733;BME280;12047;53.450;-2.286;2022-12-29T19:26:45;99829.34;;;11.95;100.00
23733;BME280;12047;53.450;-2.286;2022-12-29T19:31:46;99826.72;;;12.58;100.00
23733;BME280;12047;53.450;-2.286;2022-12-29T19:36:47;99843.75;;;12.17;100.00
23733;BME280;12047;53.450;-2.286;2022-12-29T19:41:47;99844.28;;;11.88;100.00
23733;BME280;12047;53.450;-2.286;2022-12-29T19:46:48;99852.25;;;12.04;100.00
23733;BME280;12047;53.450;-2.286;2022-12-29T19:51:49;99856.84;;;12.35;100.00
23733;BME280;12047;53.450;-2.286;2022-12-29T19:56:49;99861.69;;;11.66;100.00
23733;BME280;12047;53.450;-2.286;2022-12-29T20:01:50;99871.53;;;11.82;100.00
23733;BME280;12047;53.450;-2.286;2022-12-29T20:06:50;99871.28;;;11.43;100.00
23733;BME280;12047;53.450;-2.286;2022-12-29T20:11:51;99864.88;;;11.86;100.00
23733;BME280;12047;53.450;-2.286;2022-12-29T20:16:52;99844.44;;;12.66;100.00
23733;BME280;12047;53.450;-2.286;2022-12-29T20:21:53;99848.06;;;12.26;100.00
23733;BME280;12047;53.450;-2.286;2022-12-29T20:26:56;99833.88;;;12.50;100.00
23733;BME280;12047;53.450;-2.286;2022-12-29T20:31:58;99846.44;;;12.64;100.00
23733;BME280;12047;53.450;-2.286;2022-12-29T20:36:59;99851.72;;;12.17;100.00
23733;BME280;12047;53.450;-2.286;2022-12-29T20:42:03;99841.44;;;18.45;100.00
23733;BME280;12047;53.450;-2.286;2022-12-29T20:47:06;99850.63;;;13.28;100.00
23733;BME280;12047;53.450;-2.286;2022-12-29T20:52:07;99856.03;;;12.34;100.00
23733;BME280;12047;53.450;-2.286;2022-12-29T20:57:09;99847.75;;;12.13;100.00
23733;BME280;12047;53.450;-2.286;2022-12-29T21:02:21;99838.28;;;11.45;100.00
23733;BME280;12047;53.450;-2.286;2022-12-29T21:13:00;99831.66;;;11.66;100.00
23733;BME280;12047;53.450;-2.286;2022-12-29T21:18:06;99822.91;;;11.81;100.00
23733;BME280;12047;53.450;-2.286;2022-12-29T21:23:09;99823.06;;;11.47;100.00
23733;BME280;12047;53.450;-2.286;2022-12-29T21:28:10;99815.41;;;11.44;100.00
23733;BME280;12047;53.450;-2.286;2022-12-29T21:33:18;99808.31;;;11.37;100.00
23733;BME280;12047;53.450;-2.286;2022-12-29T21:38:19;99797.50;;;11.46;100.00
23733;BME280;12047;53.450;-2.286;2022-12-29T21:43:19;99800.81;;;11.24;100.00
23733;BME280;12047;53.450;-2.286;2022-12-29T21:48:20;99797.50;;;11.46;100.00
23733;BME280;12047;53.450;-2.286;2022-12-29T21:53:22;99797.19;;;11.57;100.00
23733;BME280;12047;53.450;-2.286;2022-12-29T21:58:38;99795.34;;;11.17;100.00
23733;BME280;12047;53.450;-2.286;2022-12-29T22:03:58;99789.69;;;11.04;100.00
23733;BME280;12047;53.450;-2.286;2022-12-29T22:09:17;99774.81;;;11.11;100.00
23733;BME280;12047;53.450;-2.286;2022-12-29T22:14:36;99771.66;;;11.32;100.00
23733;BME280;12047;53.450;-2.286;2022-12-29T22:19:37;99756.41;;;11.50;100.00
23733;BME280;12047;53.450;-2.286;2022-12-29T22:24:40;99754.41;;;11.20;100.00
23733;BME280;12047;53.450;-2.286;2022-12-29T22:29:40;99749.75;;;11.14;100.00
23733;BME280;12047;53.450;-2.286;2022-12-29T22:34:41;99738.03;;;11.33;100.00
23733;BME280;12047;53.450;-2.286;2022-12-29T22:39:45;99734.88;;;11.13;100.00
23733;BME280;12047;53.450;-2.286;2022-12-29T22:44:45;99729.72;;;11.44;100.00
23733;BME280;12047;53.450;-2.286;2022-12-29T22:49:46;99749.13;;;11.12;100.00
23733;BME280;12047;53.450;-2.286;2022-12-29T22:54:47;99747.44;;;10.86;100.00
23733;BME280;12047;53.450;-2.286;2022-12-29T22:59:53;99746.94;;;10.83;100.00
23733;BME280;12047;53.450;-2.286;2022-12-29T23:04:56;99720.44;;;11.15;100.00
23733;BME280;12047;53.450;-2.286;2022-12-29T23:09:57;99706.69;;;11.36;100.00
23733;BME280;12047;53.450;-2.286;2022-12-29T23:14:57;99720.94;;;11.35;100.00
23733;BME280;12047;53.450;-2.286;2022-12-29T23:19:58;99700.41;;;11.29;100.00
23733;BME280;12047;53.450;-2.286;2022-12-29T23:25:01;99694.72;;;11.48;100.00
23733;BME280;12047;53.450;-2.286;2022-12-29T23:30:02;99678.50;;;11.27;100.00
23733;BME280;12047;53.450;-2.286;2022-12-29T23:35:04;99684.72;;;11.75;100.00
23733;BME280;12047;53.450;-2.286;2022-12-29T23:40:05;99671.72;;;11.33;100.00
23733;BME280;12047;53.450;-2.286;2022-12-29T23:45:10;99668.03;;;11.42;100.00
23733;BME280;12047;53.450;-2.286;2022-12-29T23:50:15;99671.63;;;11.81;100.00
23733;BME280;12047;53.450;-2.286;2022-12-29T23:55:28;99677.09;;;11.64;100.00
